Roy, Montana
Current Conditions -  °F | °C
As of 5:54 PM on Saturday 25 Oct 2014 (Local Time) from KLWT Reporting Station
Clear Clear  
Wind Chill: 58°   Ceiling: Unl
Heat Index: 58°   Visibility: 10mi
Dew Point: 42°   Wind: 6mph
Humidity: 56%   Direction: 230°SW
Pressure: 29.75"   Gusts: NA
Location:  47.33°N, 108.96°W
Report Text: KLWT 252354Z AUTO 23005KT 10SM CLR 14/06 A2975 RMK AO2 SLP069 T01440056 10228 20139 56013
Loading
Personal Weather Stations






























Interactive Weather Map
Tropical Storm Tracking
New forecast layout! Learn more

10-Day Weather Forecast

Advertisements
Track Severe Weather on mobile